createdAt,value
2022-11-20T00:01:15.377Z,5.77
2022-11-20T00:03:43.582Z,4.73
2022-11-20T00:06:12.887Z,6.30
2022-11-20T00:08:41.306Z,5.33
2022-11-20T00:11:15.531Z,3.33
2022-11-20T00:13:44.019Z,4.03
2022-11-20T00:16:13.117Z,3.93
2022-11-20T00:18:41.036Z,4.83
2022-11-20T00:21:10.247Z,4.27
2022-11-20T00:23:38.144Z,3.37
2022-11-20T00:26:06.609Z,4.60
2022-11-20T00:28:35.943Z,4.57
2022-11-20T00:31:05.101Z,2.73
2022-11-20T00:33:33.075Z,4.93
2022-11-20T00:36:04.901Z,3.90
2022-11-20T00:38:33.033Z,2.83
2022-11-20T00:41:01.815Z,2.43
2022-11-20T00:43:30.058Z,4.23
2022-11-20T00:46:03.080Z,3.67
2022-11-20T00:48:31.240Z,3.93
2022-11-20T00:50:59.416Z,3.77
2022-11-20T00:53:27.361Z,4.77
2022-11-20T00:55:58.603Z,4.70
2022-11-20T00:58:27.090Z,5.90
2022-11-20T01:01:01.853Z,3.57
2022-11-20T01:03:33.008Z,5.20
2022-11-20T01:06:02.262Z,6.10
2022-11-20T01:08:31.631Z,6.00
2022-11-20T01:11:04.246Z,7.53
2022-11-20T01:13:42.105Z,4.07
2022-11-20T01:16:10.588Z,3.47
2022-11-20T01:18:40.525Z,5.13
2022-11-20T01:21:09.357Z,5.17
2022-11-20T01:23:37.959Z,5.50
2022-11-20T01:26:06.807Z,3.40
2022-11-20T01:28:34.811Z,5.57
2022-11-20T01:31:03.121Z,6.30
2022-11-20T01:33:31.018Z,7.97
2022-11-20T01:36:07.530Z,5.27
2022-11-20T01:38:35.638Z,4.73
2022-11-20T01:41:03.706Z,6.60
2022-11-20T01:43:30.579Z,6.30
2022-11-20T01:46:00.610Z,4.67
2022-11-20T01:48:30.545Z,6.47
2022-11-20T01:50:59.853Z,5.17
2022-11-20T01:53:31.854Z,6.70
2022-11-20T01:56:01.229Z,4.67
2022-11-20T01:58:31.110Z,7.20
2022-11-20T02:00:59.107Z,6.03
2022-11-20T02:03:27.126Z,4.03
2022-11-20T02:05:58.070Z,6.43
2022-11-20T02:08:26.156Z,5.93
2022-11-20T02:10:55.674Z,5.60
2022-11-20T02:13:41.539Z,4.50
2022-11-20T02:16:11.068Z,3.43
2022-11-20T02:18:39.509Z,4.87
2022-11-20T02:21:09.013Z,4.33
2022-11-20T02:23:40.534Z,3.70
2022-11-20T02:26:11.421Z,7.10
2022-11-20T02:28:39.597Z,6.00
2022-11-20T02:31:07.480Z,4.63
2022-11-20T02:33:35.419Z,4.13
2022-11-20T02:36:03.644Z,2.93
2022-11-20T02:38:31.567Z,3.47
2022-11-20T02:40:59.518Z,5.47
2022-11-20T02:43:28.838Z,4.73
2022-11-20T02:45:56.719Z,5.27
2022-11-20T02:48:25.331Z,4.80
2022-11-20T02:50:53.871Z,6.47
2022-11-20T02:53:22.052Z,3.13
2022-11-20T02:55:49.956Z,8.40
2022-11-20T02:58:17.889Z,4.60
2022-11-20T03:00:47.181Z,4.17
2022-11-20T03:03:15.142Z,6.93
2022-11-20T03:06:02.199Z,7.57
2022-11-20T03:08:30.610Z,4.77
2022-11-20T03:10:58.509Z,4.00
2022-11-20T03:13:27.260Z,4.83
2022-11-20T03:15:55.385Z,4.37
2022-11-20T03:18:23.518Z,4.07
2022-11-20T03:20:51.418Z,3.93
2022-11-20T03:23:20.716Z,4.87
2022-11-20T03:25:48.657Z,3.47
2022-11-20T03:28:16.608Z,6.30
2022-11-20T03:30:44.510Z,7.30
2022-11-20T03:33:12.555Z,3.47
2022-11-20T03:35:40.492Z,3.33
2022-11-20T03:38:08.410Z,5.67
2022-11-20T03:40:37.870Z,5.17
2022-11-20T03:43:05.754Z,4.43
2022-11-20T03:45:33.667Z,6.03
2022-11-20T03:48:01.620Z,7.23
2022-11-20T03:50:29.516Z,5.87
2022-11-20T03:52:57.456Z,4.63
2022-11-20T03:55:25.557Z,5.10
2022-11-20T03:57:55.124Z,3.40
2022-11-20T04:00:23.140Z,3.90
2022-11-20T04:02:51.037Z,5.13
2022-11-20T04:05:18.968Z,4.30
2022-11-20T04:07:46.865Z,3.40
2022-11-20T04:10:15.167Z,4.30
2022-11-20T04:12:43.062Z,3.93
2022-11-20T04:15:12.627Z,4.57
2022-11-20T04:17:40.555Z,5.87
2022-11-20T04:20:09.062Z,2.90
2022-11-20T04:22:37.023Z,5.80
2022-11-20T04:25:05.156Z,3.03
2022-11-20T04:27:33.200Z,3.77
2022-11-20T04:30:01.161Z,4.20
2022-11-20T04:32:30.477Z,4.53
2022-11-20T04:34:58.474Z,4.20
2022-11-20T04:37:26.525Z,3.67
2022-11-20T04:39:54.481Z,3.90
2022-11-20T04:42:31.617Z,3.97
2022-11-20T04:45:00.526Z,4.57
2022-11-20T04:47:30.774Z,3.77
2022-11-20T04:50:00.374Z,2.97
2022-11-20T04:52:31.261Z,4.13
2022-11-20T04:54:59.211Z,7.07
2022-11-20T04:57:27.168Z,3.23
2022-11-20T04:59:55.504Z,4.47
2022-11-20T05:02:24.142Z,5.60
2022-11-20T05:04:52.159Z,4.00
2022-11-20T05:07:21.637Z,4.53
2022-11-20T05:09:49.750Z,6.97
2022-11-20T05:12:17.623Z,4.33
2022-11-20T05:14:45.811Z,4.33
2022-11-20T05:17:14.287Z,4.43
2022-11-20T05:19:42.232Z,6.63
2022-11-20T05:22:10.184Z,5.47
2022-11-20T05:24:39.544Z,4.30
2022-11-20T05:27:07.451Z,3.80
2022-11-20T05:29:35.370Z,4.20
2022-11-20T05:32:03.321Z,4.80
2022-11-20T05:34:31.229Z,3.23
2022-11-20T05:36:59.124Z,3.80
2022-11-20T05:39:27.057Z,4.73
2022-11-20T05:42:10.166Z,3.33
2022-11-20T05:44:38.086Z,5.20
2022-11-20T05:47:06.040Z,3.67
2022-11-20T05:49:34.087Z,7.07
2022-11-20T05:52:02.030Z,4.10
2022-11-20T05:54:29.910Z,5.20
2022-11-20T05:56:59.300Z,7.80
2022-11-20T05:59:27.200Z,5.30
2022-11-20T06:01:55.542Z,3.77
2022-11-20T06:04:23.658Z,3.07
2022-11-20T06:06:51.677Z,5.27
2022-11-20T06:09:19.832Z,4.23
2022-11-20T06:11:47.897Z,5.80
2022-11-20T06:14:17.227Z,4.73
2022-11-20T06:16:45.192Z,8.17
2022-11-20T06:19:13.126Z,3.67
2022-11-20T06:21:41.375Z,4.67
2022-11-20T06:24:11.183Z,7.03
2022-11-20T06:26:39.107Z,5.10
2022-11-20T06:29:07.035Z,4.37
2022-11-20T06:31:38.840Z,3.97
2022-11-20T06:34:07.086Z,8.07
2022-11-20T06:36:37.635Z,4.10
2022-11-20T06:39:05.728Z,3.73
2022-11-20T06:41:33.706Z,6.50
2022-11-20T06:44:01.986Z,6.17
2022-11-20T06:46:29.913Z,6.40
2022-11-20T06:48:59.335Z,6.10
2022-11-20T06:51:27.276Z,10.73
2022-11-20T06:53:55.633Z,5.67
2022-11-20T06:56:24.922Z,4.60
2022-11-20T06:58:52.986Z,6.17
2022-11-20T07:01:21.038Z,8.70
2022-11-20T07:03:54.267Z,7.73
2022-11-20T07:06:24.169Z,4.93
2022-11-20T07:08:52.914Z,7.57
2022-11-20T07:11:20.829Z,6.63
2022-11-20T07:13:48.835Z,5.00
2022-11-20T07:16:16.736Z,10.47
2022-11-20T07:18:49.978Z,6.80
2022-11-20T07:21:18.612Z,7.33
2022-11-20T07:23:48.012Z,6.77
2022-11-20T07:26:15.912Z,6.67
2022-11-20T07:28:46.030Z,5.40
2022-11-20T07:31:18.707Z,6.10
2022-11-20T07:33:47.599Z,7.30
2022-11-20T07:36:15.522Z,5.60
2022-11-20T07:38:43.466Z,6.77
2022-11-20T07:41:12.783Z,5.13
2022-11-20T07:43:41.669Z,8.53
2022-11-20T07:46:09.925Z,5.93
2022-11-20T07:48:37.876Z,8.37
2022-11-20T07:51:05.962Z,8.10
2022-11-20T07:53:33.874Z,5.60
2022-11-20T07:56:02.073Z,5.70
2022-11-20T07:58:34.103Z,7.07
2022-11-20T08:01:05.028Z,4.83
2022-11-20T08:03:33.030Z,12.47
2022-11-20T08:06:01.127Z,10.83
2022-11-20T08:08:31.315Z,9.33
2022-11-20T08:11:22.548Z,9.03
2022-11-20T08:14:09.473Z,7.67
2022-11-20T08:16:37.928Z,6.77
2022-11-20T08:19:06.128Z,8.13
2022-11-20T08:21:38.185Z,5.53
2022-11-20T08:24:07.085Z,5.23
2022-11-20T08:26:35.161Z,9.90
2022-11-20T08:29:05.298Z,4.70
2022-11-20T08:31:33.334Z,4.83
2022-11-20T08:34:03.885Z,3.83
2022-11-20T08:36:35.464Z,3.50
2022-11-20T08:39:03.876Z,4.53
2022-11-20T08:41:34.211Z,6.93
2022-11-20T08:44:03.121Z,6.03
2022-11-20T08:46:35.055Z,3.53
2022-11-20T08:49:03.119Z,11.93
2022-11-20T08:51:31.012Z,2.80
2022-11-20T08:53:58.952Z,5.83
2022-11-20T08:56:26.986Z,4.40
2022-11-20T08:59:18.376Z,5.93
2022-11-20T09:01:45.168Z,6.23
2022-11-20T09:04:15.401Z,7.50
2022-11-20T09:06:43.410Z,3.97
2022-11-20T09:09:11.318Z,2.70
2022-11-20T09:11:39.436Z,6.13
2022-11-20T09:14:07.362Z,5.57
2022-11-20T09:16:35.424Z,4.13
2022-11-20T09:19:34.017Z,4.97
2022-11-20T09:21:59.553Z,6.80
2022-11-20T09:24:27.903Z,5.23
2022-11-20T09:26:55.811Z,7.10
2022-11-20T09:29:24.390Z,3.97
2022-11-20T09:31:52.473Z,4.20
2022-11-20T09:34:21.891Z,4.20
2022-11-20T09:36:49.797Z,3.43
2022-11-20T09:39:17.700Z,5.10
2022-11-20T09:42:03.600Z,5.33
2022-11-20T09:44:40.588Z,2.67
2022-11-20T09:47:10.894Z,4.47
2022-11-20T09:49:46.504Z,5.07
2022-11-20T09:52:17.763Z,6.87
2022-11-20T09:54:46.206Z,5.43
2022-11-20T09:57:14.864Z,5.17
2022-11-20T09:59:43.343Z,4.43
2022-11-20T10:02:17.623Z,4.93
2022-11-20T10:04:50.156Z,8.47
2022-11-20T10:07:35.532Z,7.93
2022-11-20T10:10:03.657Z,6.00
2022-11-20T10:12:37.495Z,3.70
2022-11-20T10:15:12.580Z,6.93
2022-11-20T10:17:56.313Z,5.70
2022-11-20T10:20:30.101Z,7.03
2022-11-20T10:23:05.442Z,3.83
2022-11-20T10:25:37.590Z,3.27
2022-11-20T10:28:25.164Z,4.80
2022-11-20T10:30:57.711Z,3.93
2022-11-20T10:33:29.025Z,3.57
2022-11-20T10:36:07.625Z,4.87
2022-11-20T10:38:38.634Z,3.37
2022-11-20T10:41:25.062Z,4.37
2022-11-20T10:43:54.563Z,1.87
2022-11-20T10:46:24.834Z,3.93
2022-11-20T10:48:53.331Z,7.30
2022-11-20T10:51:29.586Z,2.47
2022-11-20T10:54:00.167Z,3.13
2022-11-20T10:56:33.138Z,5.03
2022-11-20T10:59:14.499Z,2.83
2022-11-20T11:01:43.163Z,3.90
2022-11-20T11:04:29.810Z,3.87
2022-11-20T11:07:01.292Z,4.07
2022-11-20T11:09:34.482Z,5.47
2022-11-20T11:12:07.004Z,11.73
2022-11-20T11:14:44.000Z,6.87
2022-11-20T11:17:22.133Z,2.97
2022-11-20T11:19:59.023Z,4.67
2022-11-20T11:22:30.311Z,3.53
2022-11-20T11:24:58.220Z,7.47
2022-11-20T11:27:26.188Z,3.23
2022-11-20T11:30:03.935Z,5.50
2022-11-20T11:32:31.894Z,4.60
2022-11-20T11:35:03.508Z,4.37
2022-11-20T11:37:36.020Z,4.53
2022-11-20T11:40:23.368Z,2.00
2022-11-20T11:42:55.440Z,5.70
2022-11-20T11:45:22.841Z,3.33
2022-11-20T11:47:50.960Z,4.77
2022-11-20T11:50:20.159Z,1.77
2022-11-20T11:52:51.870Z,2.40
2022-11-20T11:55:26.449Z,1.33
2022-11-20T11:57:56.859Z,8.97
2022-11-20T12:00:25.586Z,6.23
2022-11-20T12:03:02.999Z,3.67
2022-11-20T12:05:33.339Z,4.70
2022-11-20T12:08:09.496Z,3.30
2022-11-20T12:10:43.519Z,7.13
2022-11-20T12:13:17.252Z,4.27
2022-11-20T12:15:47.166Z,4.20
2022-11-20T12:18:17.697Z,2.67
2022-11-20T12:20:48.189Z,5.57
2022-11-20T12:23:20.415Z,3.27
2022-11-20T12:25:50.439Z,5.27
2022-11-20T12:28:29.231Z,2.40
2022-11-20T12:31:14.336Z,2.90
2022-11-20T12:33:48.966Z,4.10
2022-11-20T12:36:21.701Z,4.57
2022-11-20T12:39:04.143Z,4.07
2022-11-20T12:42:00.513Z,4.63
2022-11-20T12:44:54.998Z,4.43
2022-11-20T12:47:26.422Z,4.87
2022-11-20T12:49:57.811Z,2.33
2022-11-20T12:52:41.588Z,4.00
2022-11-20T12:55:19.379Z,2.50
2022-11-20T12:57:51.913Z,4.07
2022-11-20T13:00:20.820Z,6.23
2022-11-20T13:03:02.507Z,5.83
2022-11-20T13:05:33.797Z,5.13
2022-11-20T13:08:02.930Z,8.37
2022-11-20T13:10:34.964Z,5.63
2022-11-20T13:13:06.362Z,2.00
2022-11-20T13:15:48.186Z,4.40
2022-11-20T13:18:16.383Z,4.00
2022-11-20T13:20:45.403Z,3.43
2022-11-20T13:23:13.992Z,2.47
2022-11-20T13:25:43.318Z,5.87
2022-11-20T13:28:26.035Z,3.70
2022-11-20T13:30:58.021Z,2.30
2022-11-20T13:33:30.983Z,6.30
2022-11-20T13:36:00.034Z,2.90
2022-11-20T13:38:33.712Z,1.20
2022-11-20T13:41:24.225Z,3.27
2022-11-20T13:43:53.493Z,2.83
2022-11-20T13:46:25.511Z,4.30
2022-11-20T13:48:55.830Z,1.23
2022-11-20T13:51:28.847Z,3.13
2022-11-20T13:54:14.682Z,6.17
2022-11-20T13:56:50.980Z,3.90
2022-11-20T13:59:29.290Z,3.30
2022-11-20T14:01:57.253Z,5.90
2022-11-20T14:04:28.274Z,2.33
2022-11-20T14:06:59.442Z,1.90
2022-11-20T14:09:28.909Z,3.20
2022-11-20T14:11:59.004Z,3.60
2022-11-20T14:14:27.804Z,5.77
2022-11-20T14:17:07.103Z,3.07
2022-11-20T14:19:35.348Z,3.17
2022-11-20T14:22:11.624Z,4.23
2022-11-20T14:24:39.589Z,1.57
2022-11-20T14:27:13.063Z,4.17
2022-11-20T14:29:41.762Z,4.63
2022-11-20T14:32:11.182Z,2.43
2022-11-20T14:34:41.603Z,3.30
2022-11-20T14:37:16.735Z,4.10
2022-11-20T14:39:49.960Z,1.73
2022-11-20T14:42:19.945Z,5.20
2022-11-20T14:44:48.002Z,1.77
2022-11-20T14:47:17.567Z,2.80
2022-11-20T14:49:45.783Z,2.10
2022-11-20T14:52:15.241Z,3.63
2022-11-20T14:54:47.129Z,3.53
2022-11-20T14:57:36.034Z,2.67
2022-11-20T15:00:10.633Z,2.97
2022-11-20T15:02:41.380Z,6.00
2022-11-20T15:05:09.382Z,6.33
2022-11-20T15:07:38.254Z,3.77
2022-11-20T15:10:07.238Z,2.73
2022-11-20T15:12:36.082Z,2.17
2022-11-20T15:15:04.489Z,4.93
2022-11-20T15:17:33.994Z,4.43
2022-11-20T15:20:02.225Z,1.70
2022-11-20T15:22:30.170Z,2.73
2022-11-20T15:24:58.124Z,5.33
2022-11-20T15:27:26.114Z,1.97
2022-11-20T15:29:54.292Z,3.73
2022-11-20T15:32:22.240Z,2.93
2022-11-20T15:34:51.627Z,3.33
2022-11-20T15:37:19.560Z,3.27
2022-11-20T15:39:47.757Z,3.60
2022-11-20T15:42:15.688Z,4.53
2022-11-20T15:44:43.850Z,5.30
2022-11-20T15:47:12.150Z,2.00
2022-11-20T15:49:40.112Z,2.50
2022-11-20T15:52:11.294Z,2.83
2022-11-20T15:54:39.254Z,4.77
2022-11-20T15:57:07.417Z,2.30
2022-11-20T15:59:35.516Z,3.13
2022-11-20T16:02:03.416Z,2.03
2022-11-20T16:04:31.468Z,3.33
2022-11-20T16:06:59.427Z,6.40
2022-11-20T16:09:28.824Z,3.07
2022-11-20T16:11:57.037Z,3.17
2022-11-20T16:14:44.695Z,1.93
2022-11-20T16:17:12.744Z,4.73
2022-11-20T16:19:40.640Z,4.87
2022-11-20T16:22:08.654Z,3.90
2022-11-20T16:24:38.128Z,4.90
2022-11-20T16:27:06.047Z,3.10
2022-11-20T16:29:33.950Z,4.30
2022-11-20T16:32:01.895Z,3.63
2022-11-20T16:34:29.990Z,4.53
2022-11-20T16:36:58.084Z,4.93
2022-11-20T16:39:27.308Z,4.30
2022-11-20T16:41:56.671Z,4.10
2022-11-20T16:44:24.880Z,3.50
2022-11-20T16:46:53.157Z,4.13
2022-11-20T16:49:21.166Z,4.47
2022-11-20T16:51:49.167Z,4.40
2022-11-20T16:54:20.922Z,4.00
2022-11-20T16:56:51.270Z,6.73
2022-11-20T16:59:20.639Z,3.57
2022-11-20T17:01:48.667Z,3.87
2022-11-20T17:04:16.847Z,4.17
2022-11-20T17:06:45.464Z,5.10
2022-11-20T17:09:13.970Z,5.43
2022-11-20T17:11:41.912Z,3.70
2022-11-20T17:14:10.031Z,4.23
2022-11-20T17:16:41.903Z,5.37
2022-11-20T17:19:10.172Z,5.73
2022-11-20T17:21:38.397Z,5.37
2022-11-20T17:24:07.007Z,2.93
2022-11-20T17:26:35.444Z,5.33
2022-11-20T17:29:04.852Z,4.17
2022-11-20T17:31:33.103Z,2.43
2022-11-20T17:34:02.492Z,4.83
2022-11-20T17:36:30.796Z,2.83
2022-11-20T17:38:58.874Z,4.20
2022-11-20T17:41:27.714Z,3.13
2022-11-20T17:43:58.376Z,3.60
2022-11-20T17:46:28.145Z,5.23
2022-11-20T17:48:57.284Z,3.30
2022-11-20T17:51:28.007Z,2.50
2022-11-20T17:53:57.540Z,3.20
2022-11-20T17:56:49.707Z,6.13
2022-11-20T17:59:18.620Z,3.93
2022-11-20T18:01:48.022Z,3.70
2022-11-20T18:04:17.671Z,4.83
2022-11-20T18:06:47.308Z,4.90
2022-11-20T18:09:16.102Z,3.93
2022-11-20T18:11:44.390Z,3.50
2022-11-20T18:14:34.952Z,5.47
2022-11-20T18:17:04.146Z,3.90
2022-11-20T18:19:33.110Z,3.77
2022-11-20T18:22:04.309Z,3.53
2022-11-20T18:24:32.270Z,5.77
2022-11-20T18:27:00.926Z,4.60
2022-11-20T18:29:31.250Z,4.73
2022-11-20T18:31:59.617Z,4.67
2022-11-20T18:34:27.947Z,4.27
2022-11-20T18:36:55.884Z,5.07
2022-11-20T18:39:26.002Z,6.20
2022-11-20T18:42:12.106Z,5.27
2022-11-20T18:44:52.914Z,6.37
2022-11-20T18:47:21.743Z,12.10
2022-11-20T18:49:53.149Z,13.00
2022-11-20T18:52:23.160Z,10.70
2022-11-20T18:54:52.551Z,6.57
2022-11-20T18:57:21.425Z,8.73
2022-11-20T18:59:49.634Z,5.50
2022-11-20T19:02:18.545Z,12.23
2022-11-20T19:04:46.487Z,10.50
2022-11-20T19:07:14.852Z,9.57
2022-11-20T19:09:43.627Z,8.97
2022-11-20T19:12:13.651Z,11.30
2022-11-20T19:14:41.673Z,8.43
2022-11-20T19:17:11.146Z,10.80
2022-11-20T19:19:39.112Z,8.03
2022-11-20T19:22:08.250Z,5.07
2022-11-20T19:24:36.647Z,4.90
2022-11-20T19:27:04.620Z,3.47
2022-11-20T19:29:34.028Z,5.30
2022-11-20T19:32:04.555Z,5.60
2022-11-20T19:34:32.876Z,6.37
2022-11-20T19:37:01.442Z,4.27
2022-11-20T19:39:29.465Z,5.90
2022-11-20T19:41:57.430Z,5.90
2022-11-20T19:44:25.978Z,4.77
2022-11-20T19:46:57.330Z,3.17
2022-11-20T19:49:26.028Z,6.07
2022-11-20T19:51:59.534Z,4.10
2022-11-20T19:54:27.501Z,7.50
2022-11-20T19:56:56.083Z,6.30
2022-11-20T19:59:24.848Z,5.63
2022-11-20T20:01:53.351Z,6.40
2022-11-20T20:04:23.087Z,7.17
2022-11-20T20:06:51.518Z,6.13
2022-11-20T20:09:19.810Z,4.63
2022-11-20T20:11:48.250Z,6.10
2022-11-20T20:14:17.072Z,12.73
2022-11-20T20:16:45.618Z,5.17
2022-11-20T20:19:14.736Z,7.17
2022-11-20T20:21:44.248Z,5.73
2022-11-20T20:24:12.799Z,5.20
2022-11-20T20:26:40.904Z,6.43
2022-11-20T20:29:08.954Z,12.07
2022-11-20T20:31:36.979Z,8.90
2022-11-20T20:34:06.191Z,7.70
2022-11-20T20:36:34.205Z,12.47
2022-11-20T20:39:03.838Z,8.10
2022-11-20T20:41:31.925Z,6.57
2022-11-20T20:44:17.139Z,7.67
2022-11-20T20:46:45.213Z,6.50
2022-11-20T20:49:13.368Z,9.30
2022-11-20T20:51:41.351Z,6.83
2022-11-20T20:54:10.849Z,5.83
2022-11-20T20:56:39.603Z,8.00
2022-11-20T20:59:07.726Z,5.80
2022-11-20T21:01:35.961Z,9.03
2022-11-20T21:04:03.986Z,7.67
2022-11-20T21:06:32.036Z,7.00
2022-11-20T21:09:00.106Z,5.67
2022-11-20T21:11:29.443Z,6.47
2022-11-20T21:13:57.351Z,7.90
2022-11-20T21:16:25.541Z,7.90
2022-11-20T21:18:53.572Z,7.50
2022-11-20T21:21:39.285Z,4.37
2022-11-20T21:24:07.636Z,5.43
2022-11-20T21:26:36.957Z,8.53
2022-11-20T21:29:04.889Z,9.57
2022-11-20T21:31:32.851Z,11.00
2022-11-20T21:34:01.494Z,9.33
2022-11-20T21:36:30.394Z,6.20
2022-11-20T21:38:59.659Z,9.83
2022-11-20T21:41:28.860Z,8.70
2022-11-20T21:44:29.474Z,10.97
2022-11-20T21:46:47.278Z,14.70
2022-11-20T21:49:17.684Z,7.37
2022-11-20T21:51:45.621Z,9.33
2022-11-20T21:54:13.710Z,10.37
2022-11-20T21:56:41.694Z,7.87
2022-11-20T21:59:14.335Z,9.13
2022-11-20T22:01:42.460Z,12.03
2022-11-20T22:04:14.364Z,9.43
2022-11-20T22:06:42.300Z,7.50
2022-11-20T22:09:10.977Z,10.60
2022-11-20T22:11:38.919Z,9.80
2022-11-20T22:14:22.623Z,9.70
2022-11-20T22:16:53.102Z,12.07
2022-11-20T22:19:21.803Z,11.77
2022-11-20T22:21:50.792Z,14.50
2022-11-20T22:24:19.599Z,9.57
2022-11-20T22:26:48.265Z,13.40
2022-11-20T22:29:16.851Z,12.47
2022-11-20T22:31:44.959Z,8.83
2022-11-20T22:34:15.250Z,10.80
2022-11-20T22:36:43.443Z,9.87
2022-11-20T22:39:11.441Z,8.50
2022-11-20T22:41:39.347Z,13.63
2022-11-20T22:44:07.794Z,11.67
2022-11-20T22:46:36.454Z,10.17
2022-11-20T22:49:05.380Z,10.23
2022-11-20T22:51:36.477Z,10.53
2022-11-20T22:54:04.849Z,14.80
2022-11-20T22:56:32.894Z,11.43
2022-11-20T22:59:00.855Z,11.20
2022-11-20T23:01:29.364Z,9.50
2022-11-20T23:03:58.186Z,11.23
2022-11-20T23:06:26.529Z,12.10
2022-11-20T23:08:56.154Z,11.67
2022-11-20T23:11:24.955Z,10.93
2022-11-20T23:13:54.510Z,11.23
2022-11-20T23:16:22.523Z,11.47
2022-11-20T23:18:54.400Z,12.93
2022-11-20T23:21:22.800Z,15.23
2022-11-20T23:23:51.311Z,12.23
2022-11-20T23:26:21.397Z,9.40
2022-11-20T23:28:49.374Z,11.17
2022-11-20T23:31:17.613Z,13.97
2022-11-20T23:33:46.564Z,10.43
2022-11-20T23:36:14.628Z,9.33
2022-11-20T23:38:42.780Z,12.10
2022-11-20T23:41:10.737Z,10.53
2022-11-20T23:43:40.224Z,10.10
2022-11-20T23:46:11.427Z,10.13
2022-11-20T23:48:41.830Z,12.43
2022-11-20T23:51:09.726Z,10.27
2022-11-20T23:53:37.650Z,10.37
2022-11-20T23:56:06.192Z,11.83
2022-11-20T23:58:34.809Z,10.40
